Time;durP1;ratioP1;P1;durP2;ratioP2;P2;SDS_P1;SDS_P2;PMS_P1;PMS_P2;Temp;Humidity;BMP_temperature;BMP_pressure;BME280_temperature;BME280_humidity;BME280_pressure;Samples;Min_cycle;Max_cycle;Signal;HPM_P1;HPM_P2
2022/05/02 00:01:33;;;;;;;4.97;3.15;;;10.40;99.90;;;;;;5051210;28;20048;-75
2022/05/02 00:03:59;;;;;;;4.93;3.00;;;10.50;99.90;;;;;;5038245;28;20048;-73
2022/05/02 00:06:25;;;;;;;4.72;2.80;;;10.50;99.90;;;;;;5048526;28;20144;-73
2022/05/02 00:08:51;;;;;;;5.03;3.08;;;10.50;99.90;;;;;;5040139;28;20071;-73
2022/05/02 00:11:17;;;;;;;4.43;2.78;;;10.50;99.90;;;;;;5047094;28;20174;-73
2022/05/02 00:13:42;;;;;;;5.78;3.53;;;10.40;99.90;;;;;;5043004;28;20466;-74
2022/05/02 00:16:08;;;;;;;5.50;2.90;;;10.40;99.90;;;;;;5048801;28;20048;-73
2022/05/02 00:18:34;;;;;;;5.88;2.85;;;10.50;99.90;;;;;;5049651;28;20052;-73
2022/05/02 00:21:00;;;;;;;4.93;2.63;;;10.40;99.90;;;;;;5051629;28;20414;-74
2022/05/02 00:23:26;;;;;;;4.63;3.05;;;10.30;99.90;;;;;;5049178;28;20041;-72
2022/05/02 00:25:52;;;;;;;6.43;2.83;;;10.40;99.90;;;;;;5049302;28;20025;-74
2022/05/02 00:28:17;;;;;;;5.57;3.38;;;10.40;99.90;;;;;;5044723;28;20086;-73
2022/05/02 00:30:43;;;;;;;4.88;2.88;;;10.40;99.90;;;;;;5050927;28;20056;-75
2022/05/02 00:33:10;;;;;;;5.22;3.35;;;10.50;99.90;;;;;;5049045;28;20510;-74
2022/05/02 00:35:36;;;;;;;5.93;2.92;;;10.50;99.90;;;;;;5051046;28;20518;-74
2022/05/02 00:38:02;;;;;;;4.60;2.75;;;10.60;99.90;;;;;;5047743;28;20036;-74
2022/05/02 00:40:28;;;;;;;7.28;3.30;;;10.70;99.90;;;;;;5051620;28;20483;-73
2022/05/02 00:42:54;;;;;;;3.80;2.35;;;10.70;99.90;;;;;;5042046;28;20037;-73
2022/05/02 00:45:20;;;;;;;4.75;3.10;;;10.70;99.90;;;;;;5054140;28;20047;-74
2022/05/02 00:47:51;;;;;;;4.90;2.90;;;10.70;99.90;;;;;;5060261;28;20029;-73
2022/05/02 00:50:39;;;;;;;5.13;3.38;;;10.70;99.90;;;;;;5049602;28;20033;-74
2022/05/02 00:53:08;;;;;;;4.35;2.92;;;10.70;99.90;;;;;;5044195;28;20108;-74
2022/05/02 00:55:35;;;;;;;5.40;2.63;;;10.70;99.90;;;;;;5049681;28;20037;-74
2022/05/02 00:58:01;;;;;;;4.93;3.00;;;10.80;99.90;;;;;;5047005;28;20120;-73
2022/05/02 01:00:29;;;;;;;5.05;2.90;;;10.80;99.90;;;;;;5046313;28;20086;-74
2022/05/02 01:02:56;;;;;;;4.70;3.17;;;10.80;99.90;;;;;;5043293;28;20072;-73
2022/05/02 01:05:21;;;;;;;5.22;3.05;;;10.80;99.90;;;;;;5050488;28;20048;-74
2022/05/02 01:07:47;;;;;;;7.65;4.05;;;10.80;99.90;;;;;;5048475;28;20029;-73
2022/05/02 01:10:17;;;;;;;5.13;3.15;;;10.90;99.90;;;;;;5050715;28;20116;-74
2022/05/02 01:12:48;;;;;;;4.57;3.03;;;10.90;99.90;;;;;;5046992;28;20395;-74
2022/05/02 01:15:16;;;;;;;4.28;2.67;;;11.00;99.90;;;;;;5049413;28;20147;-74
2022/05/02 01:17:42;;;;;;;6.47;2.80;;;10.90;99.90;;;;;;5044250;28;20111;-75
2022/05/02 01:20:09;;;;;;;6.68;3.13;;;10.80;99.90;;;;;;5045058;28;20033;-74
2022/05/02 01:22:35;;;;;;;5.80;2.85;;;10.70;99.90;;;;;;5049277;28;20037;-74
2022/05/02 01:25:01;;;;;;;4.93;2.80;;;10.80;99.90;;;;;;5044316;28;20386;-73
2022/05/02 01:27:26;;;;;;;5.30;2.65;;;10.80;99.90;;;;;;5041043;28;20736;-73
2022/05/02 01:29:52;;;;;;;5.28;3.17;;;10.80;99.90;;;;;;5047648;28;20111;-74
2022/05/02 01:32:18;;;;;;;4.60;2.97;;;10.80;99.90;;;;;;5050317;28;20090;-74
2022/05/02 01:34:44;;;;;;;4.25;3.03;;;10.60;99.90;;;;;;5044161;28;20021;-73
2022/05/02 01:37:12;;;;;;;5.85;3.25;;;10.40;99.90;;;;;;5048885;28;20083;-74
2022/05/02 01:39:38;;;;;;;7.22;3.47;;;10.30;99.90;;;;;;5047763;28;20033;-74
2022/05/02 01:42:06;;;;;;;4.85;3.00;;;10.30;99.90;;;;;;5047729;28;20109;-74
2022/05/02 01:44:33;;;;;;;5.22;2.70;;;10.30;99.90;;;;;;5041109;28;20041;-73
2022/05/02 01:46:58;;;;;;;4.28;2.50;;;10.10;99.90;;;;;;5049690;28;20033;-74
2022/05/02 01:49:24;;;;;;;4.80;3.00;;;10.10;99.90;;;;;;5041913;28;20119;-74
2022/05/02 01:51:51;;;;;;;5.68;3.38;;;10.20;99.90;;;;;;5034217;28;20036;-75
2022/05/02 01:54:17;;;;;;;4.72;2.70;;;10.40;99.90;;;;;;5043848;28;20067;-74
2022/05/02 01:56:43;;;;;;;5.53;2.88;;;10.30;99.90;;;;;;5045289;28;20115;-74
2022/05/02 01:59:09;;;;;;;4.47;2.63;;;10.30;99.90;;;;;;5037688;28;20037;-75
2022/05/02 02:01:35;;;;;;;6.90;3.35;;;10.30;99.90;;;;;;5045049;28;20485;-75
2022/05/02 02:05:48;;;;;;;5.15;2.65;;;10.40;99.90;;;;;;5039030;28;20084;-74
2022/05/02 02:06:48;;;;;;;5.43;2.67;;;10.40;99.90;;;;;;5041701;28;20048;-74
2022/05/02 02:09:14;;;;;;;5.30;2.30;;;10.40;99.90;;;;;;5037925;28;20090;-74
2022/05/02 02:11:39;;;;;;;6.78;2.40;;;10.30;99.90;;;;;;5042454;28;20485;-75
2022/05/02 02:14:05;;;;;;;5.10;3.08;;;10.20;99.90;;;;;;5043148;28;20044;-74
2022/05/02 02:16:31;;;;;;;6.55;3.38;;;10.20;99.90;;;;;;5043601;28;20033;-75
2022/05/02 02:18:56;;;;;;;6.30;3.22;;;10.20;99.90;;;;;;5046598;28;20382;-75
2022/05/02 02:21:22;;;;;;;6.93;3.15;;;9.90;99.90;;;;;;5048831;28;20028;-74
2022/05/02 02:23:48;;;;;;;4.70;2.67;;;10.00;99.90;;;;;;5046728;28;20084;-73
2022/05/02 02:26:13;;;;;;;6.05;2.63;;;10.10;99.90;;;;;;5031749;28;20103;-75
2022/05/02 02:28:39;;;;;;;4.50;2.60;;;10.00;99.90;;;;;;5040923;28;20080;-75
2022/05/02 02:31:05;;;;;;;5.18;3.05;;;10.10;99.90;;;;;;5038239;28;20047;-75
2022/05/02 02:33:31;;;;;;;7.03;3.45;;;9.90;99.90;;;;;;5047190;28;20032;-75
2022/05/02 02:35:56;;;;;;;4.28;2.85;;;10.20;99.90;;;;;;5039893;28;20155;-74
2022/05/02 02:38:22;;;;;;;6.15;2.38;;;10.40;99.90;;;;;;5045102;28;20032;-75
2022/05/02 02:40:48;;;;;;;4.07;2.15;;;10.20;99.90;;;;;;5044801;28;20032;-75
2022/05/02 02:43:14;;;;;;;4.82;2.58;;;10.10;99.90;;;;;;5040478;28;20082;-75
2022/05/02 02:45:40;;;;;;;4.00;2.38;;;9.80;99.90;;;;;;5047696;28;20045;-75
2022/05/02 02:48:06;;;;;;;9.77;3.20;;;9.70;99.90;;;;;;5038069;28;20051;-76
2022/05/02 02:50:32;;;;;;;3.88;2.25;;;9.70;99.90;;;;;;5044874;28;20106;-75
2022/05/02 02:52:57;;;;;;;4.55;2.55;;;9.60;99.90;;;;;;5045873;28;20036;-76
2022/05/02 02:55:23;;;;;;;4.03;2.30;;;9.60;99.90;;;;;;5048229;28;20040;-74
2022/05/02 02:57:49;;;;;;;4.07;2.40;;;9.70;99.90;;;;;;5040800;28;20032;-74
2022/05/02 03:00:15;;;;;;;5.03;2.97;;;9.70;99.90;;;;;;5042815;28;20057;-73
2022/05/02 03:02:42;;;;;;;5.45;2.25;;;9.70;99.90;;;;;;5041662;28;20046;-73
2022/05/02 03:07:53;;;;;;;4.30;1.90;;;9.70;99.90;;;;;;5042578;28;20039;-73
2022/05/02 03:10:19;;;;;;;5.45;2.22;;;9.70;99.90;;;;;;5036922;28;20028;-73
2022/05/02 03:12:46;;;;;;;3.47;2.00;;;9.70;99.90;;;;;;5037655;28;20036;-73
2022/05/02 03:15:11;;;;;;;4.30;2.22;;;9.80;99.90;;;;;;5043810;28;20037;-73
2022/05/02 03:17:37;;;;;;;5.65;2.55;;;9.80;99.90;;;;;;5039993;28;20931;-74
2022/05/02 03:20:04;;;;;;;5.07;2.03;;;9.90;99.90;;;;;;5035651;28;20115;-73
2022/05/02 03:22:30;;;;;;;4.80;2.53;;;10.00;99.90;;;;;;5041733;28;20432;-74
2022/05/02 03:24:56;;;;;;;4.72;2.53;;;10.00;99.90;;;;;;5045022;28;20041;-73
2022/05/02 03:27:21;;;;;;;4.55;2.58;;;10.00;99.90;;;;;;5043154;28;20029;-73
2022/05/02 03:29:47;;;;;;;4.28;2.53;;;10.10;99.90;;;;;;5045143;28;20482;-73
2022/05/02 03:32:13;;;;;;;5.07;2.90;;;10.10;99.90;;;;;;5038607;28;20511;-73
2022/05/02 03:34:38;;;;;;;4.20;2.80;;;10.10;99.90;;;;;;5046401;28;20108;-73
2022/05/02 03:37:04;;;;;;;5.75;2.65;;;10.20;99.90;;;;;;5048231;28;20021;-73
2022/05/02 03:39:30;;;;;;;4.95;2.53;;;10.20;99.90;;;;;;5045790;28;20040;-73
2022/05/02 03:41:55;;;;;;;4.78;2.65;;;10.30;99.90;;;;;;5045987;28;20036;-73
2022/05/02 03:44:21;;;;;;;5.53;2.50;;;10.20;99.90;;;;;;5045699;28;20059;-74
2022/05/02 03:46:47;;;;;;;5.45;3.63;;;10.20;99.90;;;;;;5037107;28;20061;-73
2022/05/02 03:49:12;;;;;;;7.03;2.40;;;10.10;99.90;;;;;;5042161;28;20033;-74
2022/05/02 03:51:38;;;;;;;4.45;2.85;;;10.10;99.90;;;;;;5043529;28;20036;-73
2022/05/02 03:54:04;;;;;;;4.82;2.55;;;10.10;99.90;;;;;;5045690;28;20055;-74
2022/05/02 03:56:30;;;;;;;6.47;3.05;;;10.20;99.90;;;;;;5042687;28;20037;-73
2022/05/02 03:58:55;;;;;;;4.57;2.78;;;10.20;99.90;;;;;;5047523;28;20037;-73
2022/05/02 04:01:21;;;;;;;5.10;2.50;;;10.10;99.90;;;;;;5046000;28;20095;-73
2022/05/02 04:03:47;;;;;;;5.72;2.70;;;10.20;99.90;;;;;;5044967;28;20048;-73
2022/05/02 04:06:13;;;;;;;6.05;2.92;;;10.20;99.90;;;;;;5044888;28;20095;-73
2022/05/02 04:08:39;;;;;;;5.80;3.15;;;10.20;99.90;;;;;;5044036;28;20039;-73
2022/05/02 04:11:04;;;;;;;4.90;2.90;;;10.30;99.90;;;;;;5040915;28;20032;-73
2022/05/02 04:13:30;;;;;;;5.00;3.00;;;10.40;99.90;;;;;;5045342;28;20024;-73
2022/05/02 04:15:56;;;;;;;4.88;2.95;;;10.40;99.90;;;;;;5046592;28;20040;-74
2022/05/02 04:18:22;;;;;;;4.80;2.90;;;10.50;99.90;;;;;;5041220;28;20060;-73
2022/05/02 04:20:47;;;;;;;4.47;2.70;;;10.50;99.90;;;;;;5039998;28;20017;-73
2022/05/02 04:23:13;;;;;;;5.18;2.75;;;10.60;99.90;;;;;;5038278;28;20056;-73
2022/05/02 04:25:39;;;;;;;4.20;2.67;;;10.50;99.90;;;;;;5039371;28;20033;-73
2022/05/02 04:28:07;;;;;;;4.10;2.63;;;10.50;99.90;;;;;;5044328;28;20068;-73
2022/05/02 04:30:32;;;;;;;4.68;2.72;;;10.50;99.90;;;;;;5046838;28;20033;-73
2022/05/02 04:32:58;;;;;;;7.32;3.03;;;10.50;99.90;;;;;;5041381;28;20036;-73
2022/05/02 04:35:24;;;;;;;4.55;2.80;;;10.50;99.90;;;;;;5039894;28;20031;-74
2022/05/02 04:37:49;;;;;;;7.10;2.97;;;10.50;99.90;;;;;;5044900;28;20563;-73
2022/05/02 04:40:15;;;;;;;5.43;3.03;;;10.40;99.90;;;;;;5041455;28;20040;-73
2022/05/02 04:42:41;;;;;;;4.97;2.88;;;10.30;99.90;;;;;;5042589;28;20025;-73
2022/05/02 04:45:07;;;;;;;4.75;3.13;;;10.40;99.90;;;;;;5043847;28;20128;-73
2022/05/02 04:47:32;;;;;;;6.40;2.65;;;10.30;99.90;;;;;;5044924;28;20033;-73
2022/05/02 04:49:58;;;;;;;4.45;2.72;;;10.30;99.90;;;;;;5046307;28;20029;-74
2022/05/02 04:52:24;;;;;;;3.90;2.35;;;10.30;99.90;;;;;;5037278;28;20037;-73
2022/05/02 04:54:49;;;;;;;3.85;2.40;;;10.30;99.90;;;;;;5039004;28;20029;-73
2022/05/02 04:57:15;;;;;;;5.28;3.20;;;10.40;99.90;;;;;;5039907;28;20059;-73
2022/05/02 04:59:41;;;;;;;4.43;2.60;;;10.60;99.90;;;;;;5041238;28;20060;-73
2022/05/02 05:02:06;;;;;;;6.07;2.78;;;10.70;99.90;;;;;;5042146;28;20072;-74
2022/05/02 05:04:32;;;;;;;4.10;2.17;;;10.80;99.90;;;;;;5041093;28;20128;-73
2022/05/02 05:06:58;;;;;;;5.55;2.63;;;10.70;99.90;;;;;;5046151;28;20468;-74
2022/05/02 05:09:23;;;;;;;5.32;2.70;;;10.80;99.90;;;;;;5033426;28;20594;-73
2022/05/02 05:12:14;;;;;;;5.22;2.25;;;10.80;99.90;;;;;;5044048;28;20059;-73
2022/05/02 05:17:56;;;;;;;4.85;2.55;;;10.90;99.90;;;;;;5039942;28;20048;-73
2022/05/02 05:20:41;;;;;;;5.80;2.70;;;10.90;99.90;;;;;;5046225;28;20029;-73
2022/05/02 05:23:10;;;;;;;4.18;2.33;;;11.00;99.90;;;;;;5043236;28;20041;-73
2022/05/02 05:25:59;;;;;;;3.83;2.17;;;11.10;99.90;;;;;;5040874;28;20045;-73
2022/05/02 05:28:34;;;;;;;10.55;2.90;;;11.00;99.90;;;;;;5044842;28;20573;-73
2022/05/02 05:31:24;;;;;;;4.40;2.50;;;11.10;99.90;;;;;;5043382;28;20521;-73
2022/05/02 05:33:56;;;;;;;5.10;2.88;;;11.00;99.90;;;;;;5042934;28;20039;-73
2022/05/02 05:36:43;;;;;;;6.38;3.30;;;10.90;99.90;;;;;;5041112;28;20037;-73
2022/05/02 05:39:31;;;;;;;6.03;3.67;;;10.70;99.90;;;;;;5043864;28;20079;-73
2022/05/02 05:42:09;;;;;;;4.80;3.42;;;10.70;99.90;;;;;;5044365;28;20040;-74
2022/05/02 05:44:57;;;;;;;7.55;3.83;;;10.80;99.90;;;;;;5045935;28;20488;-74
2022/05/02 05:47:46;;;;;;;6.72;3.80;;;10.90;99.90;;;;;;5035908;28;20033;-73
2022/05/02 05:50:22;;;;;;;6.40;3.40;;;10.90;99.90;;;;;;5010557;28;20041;-73
2022/05/02 05:53:17;;;;;;;5.38;3.22;;;10.90;99.90;;;;;;5027341;28;20108;-74
2022/05/02 05:55:51;;;;;;;6.65;3.40;;;10.90;99.90;;;;;;5047425;28;20025;-73
2022/05/02 05:58:32;;;;;;;8.15;3.63;;;10.90;99.90;;;;;;5049505;28;20033;-73
2022/05/02 06:01:40;;;;;;;5.63;3.50;;;11.00;99.90;;;;;;5037996;28;20039;-74
2022/05/02 06:04:07;;;;;;;6.43;4.25;;;11.10;99.90;;;;;;5043412;28;20644;-73
2022/05/02 06:06:36;;;;;;;8.75;4.40;;;11.10;99.90;;;;;;5036778;28;20040;-73
2022/05/02 06:09:05;;;;;;;5.57;3.80;;;11.10;99.90;;;;;;5045906;28;20474;-73
2022/05/02 06:11:33;;;;;;;6.65;4.15;;;11.30;99.90;;;;;;5042915;28;20106;-73
2022/05/02 06:14:01;;;;;;;7.15;4.72;;;11.40;99.90;;;;;;5048689;28;20021;-73
2022/05/02 06:19:17;;;;;;;6.82;3.78;;;11.30;99.90;;;;;;5047803;28;20055;-73
2022/05/02 06:21:46;;;;;;;5.93;4.15;;;11.40;99.90;;;;;;5044705;28;20477;-73
2022/05/02 06:24:13;;;;;;;6.70;3.78;;;11.40;99.90;;;;;;5041457;28;20053;-72
2022/05/02 06:26:40;;;;;;;8.65;4.18;;;11.50;99.90;;;;;;5035711;28;20043;-73
2022/05/02 06:29:08;;;;;;;5.85;3.85;;;11.40;99.90;;;;;;5041331;28;20040;-75
2022/05/02 06:31:36;;;;;;;5.57;4.25;;;11.50;99.90;;;;;;5016179;28;20115;-75
2022/05/02 06:34:03;;;;;;;6.28;4.10;;;11.60;99.90;;;;;;5002486;28;20034;-75
2022/05/02 06:36:55;;;;;;;6.43;3.97;;;11.60;99.90;;;;;;5002598;28;20484;-76
2022/05/02 06:39:51;;;;;;;6.70;3.63;;;11.70;99.90;;;;;;4995518;28;20121;-74
2022/05/02 06:42:39;;;;;;;6.15;3.65;;;11.70;99.90;;;;;;5013321;28;20077;-75
2022/05/02 06:45:27;;;;;;;6.55;3.40;;;11.60;99.90;;;;;;5005557;28;20067;-75
2022/05/02 06:48:06;;;;;;;7.55;3.90;;;11.80;99.90;;;;;;4996470;28;20128;-74
2022/05/02 06:50:33;;;;;;;6.75;4.00;;;11.90;99.90;;;;;;5000702;28;20021;-75
2022/05/02 06:53:16;;;;;;;4.47;2.53;;;12.00;99.90;;;;;;5008706;28;20029;-74
2022/05/02 06:56:05;;;;;;;7.03;3.30;;;12.00;99.90;;;;;;5011704;28;20388;-74
2022/05/02 06:58:39;;;;;;;4.60;3.10;;;12.00;99.90;;;;;;5011692;28;20462;-75
2022/05/02 07:01:29;;;;;;;7.55;3.30;;;12.00;99.90;;;;;;5001643;28;20022;-75
2022/05/02 07:04:29;;;;;;;5.68;3.20;;;12.00;99.90;;;;;;5012313;28;20419;-74
2022/05/02 07:07:13;;;;;;;5.50;2.88;;;12.10;99.90;;;;;;5005813;28;20516;-73
2022/05/02 07:09:42;;;;;;;5.85;3.75;;;12.00;99.90;;;;;;5002104;28;20041;-69
2022/05/02 07:12:23;;;;;;;7.07;3.92;;;12.00;99.90;;;;;;5015629;28;20049;-69
2022/05/02 07:15:33;;;;;;;6.30;3.75;;;12.20;99.90;;;;;;4997337;28;20049;-70
2022/05/02 07:18:05;;;;;;;7.63;4.47;;;12.30;99.90;;;;;;4987198;28;20045;-69
2022/05/02 07:20:42;;;;;;;6.40;3.80;;;12.30;99.90;;;;;;4984734;28;20030;-70
2022/05/02 07:23:24;;;;;;;6.32;3.72;;;12.40;99.90;;;;;;4986345;28;20040;-70
2022/05/02 07:25:58;;;;;;;7.55;4.00;;;12.20;99.90;;;;;;4980365;28;20080;-69
2022/05/02 07:28:48;;;;;;;7.63;4.50;;;12.30;99.90;;;;;;4994762;28;20036;-69
2022/05/02 07:31:19;;;;;;;6.32;4.10;;;12.30;99.90;;;;;;4991470;28;20033;-69
2022/05/02 07:33:46;;;;;;;6.38;4.10;;;12.40;99.90;;;;;;5000188;28;20029;-69
2022/05/02 07:36:15;;;;;;;6.85;4.38;;;12.30;99.90;;;;;;4998296;28;20058;-69
2022/05/02 07:38:46;;;;;;;6.85;4.28;;;12.40;99.90;;;;;;4996994;28;20041;-69
2022/05/02 07:41:23;;;;;;;6.35;4.28;;;12.30;99.90;;;;;;5014450;28;20635;-70
2022/05/02 07:43:52;;;;;;;5.93;3.92;;;12.20;99.90;;;;;;5014323;28;20030;-69
2022/05/02 07:46:30;;;;;;;6.10;3.88;;;12.30;99.90;;;;;;5013060;28;20333;-69
2022/05/02 07:48:58;;;;;;;7.38;4.60;;;12.30;99.90;;;;;;4995595;28;20034;-70
2022/05/02 07:51:25;;;;;;;9.68;4.68;;;12.40;99.90;;;;;;4998285;28;20038;-69
2022/05/02 07:53:52;;;;;;;6.20;3.88;;;12.40;99.90;;;;;;5000621;28;20172;-70
2022/05/02 07:56:21;;;;;;;7.07;4.05;;;12.50;99.90;;;;;;4993508;28;20061;-69
2022/05/02 07:58:48;;;;;;;6.95;3.95;;;12.50;99.90;;;;;;5005189;28;20502;-69
2022/05/02 08:01:18;;;;;;;7.85;4.10;;;12.40;99.90;;;;;;4992962;28;20027;-70
2022/05/02 08:03:43;;;;;;;7.78;4.32;;;12.50;99.90;;;;;;5010102;28;20179;-69
2022/05/02 08:06:53;;;;;;;6.55;4.38;;;12.50;99.90;;;;;;5001975;28;20046;-70
2022/05/02 08:09:46;;;;;;;6.85;3.80;;;12.50;99.90;;;;;;4986383;28;20030;-70
2022/05/02 08:12:36;;;;;;;7.38;4.30;;;12.60;99.90;;;;;;5016952;28;20044;-69
2022/05/02 08:15:11;;;;;;;8.50;4.82;;;12.60;99.90;;;;;;5008152;28;20044;-70
2022/05/02 08:18:01;;;;;;;7.38;4.28;;;12.60;99.90;;;;;;5005004;28;20029;-70
2022/05/02 08:20:39;;;;;;;8.93;3.85;;;12.80;99.90;;;;;;4995619;28;21172;-71
2022/05/02 08:29:18;;;;;;;12.52;4.35;;;12.80;99.90;;;;;;4983508;28;20106;-71
2022/05/02 08:31:53;;;;;;;8.73;4.25;;;12.70;99.90;;;;;;4988629;28;20039;-70
2022/05/02 08:34:30;;;;;;;;;;;12.60;99.90;;;;;;4982794;28;20045;-72
2022/05/02 08:37:33;;;;;;;7.93;4.78;;;12.50;99.90;;;;;;4987301;28;19917;-71
2022/05/02 08:40:05;;;;;;;12.25;4.60;;;12.60;99.90;;;;;;4997009;28;20072;-70
2022/05/02 08:42:49;;;;;;;8.50;4.93;;;12.60;99.90;;;;;;4999730;28;20124;-72
2022/05/02 08:45:30;;;;;;;8.80;5.07;;;12.70;99.90;;;;;;4980253;28;20050;-72
2022/05/02 08:48:17;;;;;;;6.63;4.68;;;12.80;99.90;;;;;;5007955;28;20120;-71
2022/05/02 08:50:58;;;;;;;7.28;4.45;;;13.10;99.90;;;;;;5009505;28;21522;-72
2022/05/02 08:54:06;;;;;;;9.05;4.80;;;13.00;99.90;;;;;;5015644;28;20041;-71
2022/05/02 08:56:52;;;;;;;7.85;5.07;;;13.00;99.90;;;;;;5003547;28;20117;-70
2022/05/02 08:59:35;;;;;;;8.15;5.28;;;13.10;99.90;;;;;;4982764;28;21230;-71
2022/05/02 09:02:20;;;;;;;9.13;5.20;;;13.20;99.90;;;;;;4979550;28;20064;-69
2022/05/02 09:05:19;;;;;;;6.20;4.00;;;13.40;99.90;;;;;;5000962;28;20599;-70
2022/05/02 09:08:24;;;;;;;7.25;4.25;;;13.70;99.90;;;;;;4977288;28;20491;-70
2022/05/02 09:11:09;;;;;;;7.40;4.53;;;13.60;99.90;;;;;;4988080;28;20141;-69
2022/05/02 09:13:53;;;;;;;6.28;4.20;;;13.60;99.90;;;;;;4989777;28;20967;-70
2022/05/02 09:16:53;;;;;;;6.00;3.45;;;13.70;99.90;;;;;;4982132;28;20088;-70
2022/05/02 09:19:47;;;;;;;7.97;4.10;;;13.70;99.90;;;;;;4981238;28;20506;-70
2022/05/02 09:22:25;;;;;;;8.35;4.75;;;13.80;99.90;;;;;;5008374;28;20034;-71
2022/05/02 09:25:03;;;;;;;8.75;4.93;;;14.10;99.90;;;;;;4972546;28;20041;-70
2022/05/02 09:27:50;;;;;;;8.13;4.72;;;14.50;99.90;;;;;;4983074;28;20362;-70
2022/05/02 09:30:52;;;;;;;6.25;4.05;;;14.70;99.90;;;;;;4991678;28;20037;-71
2022/05/02 09:33:42;;;;;;;9.27;4.43;;;14.80;99.90;;;;;;4989575;28;20134;-70
2022/05/02 09:36:24;;;;;;;6.60;4.13;;;14.80;99.90;;;;;;4982283;28;20026;-70
2022/05/02 09:39:06;;;;;;;7.28;4.32;;;14.80;99.90;;;;;;4987023;28;20057;-70
2022/05/02 09:41:32;;;;;;;6.20;3.80;;;14.90;99.90;;;;;;4979414;28;20038;-70
2022/05/02 09:50:14;;;;;;;5.32;3.85;;;15.00;99.90;;;;;;4989634;28;20049;-70
2022/05/02 09:52:46;;;;;;;5.60;3.53;;;14.90;99.80;;;;;;4990353;28;20026;-70
2022/05/02 09:58:15;;;;;;;8.32;3.00;;;15.20;99.90;;;;;;4987270;28;20049;-70
2022/05/02 10:01:11;;;;;;;8.43;3.60;;;15.40;99.50;;;;;;5003862;28;20137;-69
2022/05/02 10:03:55;;;;;;;5.38;3.05;;;15.40;98.90;;;;;;5001848;28;20050;-69
2022/05/02 10:06:31;;;;;;;5.75;3.25;;;15.80;99.90;;;;;;4996633;28;20073;-70
2022/05/02 10:09:01;;;;;;;5.65;2.80;;;16.30;98.50;;;;;;5003490;28;20041;-70
2022/05/02 10:11:45;;;;;;;4.88;2.88;;;16.50;97.60;;;;;;5002707;28;20044;-69
2022/05/02 10:14:37;;;;;;;;;;;16.90;97.10;;;;;;5003492;28;20026;-69
2022/05/02 10:17:10;;;;;;;6.18;2.63;;;17.20;96.80;;;;;;4984871;28;19916;-69
2022/05/02 10:19:59;;;;;;;6.88;2.30;;;17.50;96.30;;;;;;4998379;28;20058;-69
2022/05/02 10:22:54;;;;;;;5.00;2.53;;;17.40;95.80;;;;;;5001935;28;20696;-70
2022/05/02 10:25:41;;;;;;;4.55;2.38;;;17.10;95.90;;;;;;4982367;28;20056;-69
2022/05/02 10:28:36;;;;;;;5.03;2.78;;;17.00;96.40;;;;;;5000002;28;20030;-69
2022/05/02 10:31:31;;;;;;;6.30;3.13;;;16.90;97.10;;;;;;4994482;28;20030;-70
2022/05/02 10:34:02;;;;;;;4.90;3.00;;;16.70;97.40;;;;;;4989583;28;20088;-69
2022/05/02 10:36:36;;;;;;;4.93;3.28;;;16.60;97.30;;;;;;5006297;28;20511;-70
2022/05/02 10:39:29;;;;;;;5.53;2.65;;;16.60;97.00;;;;;;4994800;28;20030;-70
2022/05/02 10:42:03;;;;;;;5.38;2.90;;;16.90;96.40;;;;;;5001272;28;20091;-70
2022/05/02 10:44:42;;;;;;;5.88;3.30;;;17.40;96.40;;;;;;4997983;28;20050;-69
2022/05/02 10:47:11;;;;;;;4.97;2.83;;;17.70;96.40;;;;;;4997991;28;20034;-70
2022/05/02 10:49:51;;;;;;;5.85;2.70;;;17.50;96.10;;;;;;5001672;28;20083;-70
2022/05/02 10:52:36;;;;;;;3.97;2.63;;;17.10;95.80;;;;;;5003351;28;20033;-69
2022/05/02 10:55:05;;;;;;;4.68;2.80;;;17.00;96.20;;;;;;4987637;28;20493;-69
2022/05/02 10:57:40;;;;;;;5.72;2.95;;;16.80;96.10;;;;;;5000573;28;20037;-70
2022/05/02 11:00:10;;;;;;;4.88;2.92;;;17.20;96.80;;;;;;5020001;28;20033;-69
2022/05/02 11:02:51;;;;;;;6.22;2.88;;;17.30;95.80;;;;;;5003610;28;20050;-70
2022/05/02 11:05:21;;;;;;;4.88;2.75;;;17.20;95.60;;;;;;5005348;28;20076;-71
2022/05/02 11:07:53;;;;;;;6.70;3.30;;;17.30;96.20;;;;;;5018325;28;20073;-71
2022/05/02 11:10:22;;;;;;;6.68;3.50;;;17.50;95.40;;;;;;5006123;28;20033;-70
2022/05/02 11:12:59;;;;;;;6.72;3.10;;;17.20;95.40;;;;;;4996817;28;20025;-71
2022/05/02 11:15:30;;;;;;;5.28;2.58;;;17.60;96.30;;;;;;5004335;28;20492;-71
2022/05/02 11:18:04;;;;;;;5.35;2.58;;;17.40;95.00;;;;;;5003961;28;20033;-71
2022/05/02 11:20:41;;;;;;;5.63;2.85;;;17.40;95.30;;;;;;5005803;28;20034;-71
2022/05/02 11:23:15;;;;;;;4.80;2.80;;;17.60;95.10;;;;;;5003050;28;20037;-71
2022/05/02 11:25:51;;;;;;;;;;;17.60;95.10;;;;;;5005688;28;20037;-71
2022/05/02 11:28:53;;;;;;;4.35;2.35;;;17.70;94.50;;;;;;5004947;28;19921;-71
2022/05/02 11:31:22;;;;;;;4.18;2.15;;;17.80;95.30;;;;;;5018279;28;20462;-71
2022/05/02 11:33:50;;;;;;;8.93;1.92;;;18.00;95.60;;;;;;5003982;28;20026;-71
2022/05/02 11:36:24;;;;;;;5.13;2.50;;;17.90;92.70;;;;;;5004213;28;20029;-71
2022/05/02 11:38:52;;;;;;;8.52;2.10;;;17.70;94.10;;;;;;5004778;28;20045;-71
2022/05/02 11:41:19;;;;;;;8.88;2.72;;;17.80;94.00;;;;;;5002926;28;20032;-71
2022/05/02 11:43:46;;;;;;;4.88;2.55;;;18.10;94.30;;;;;;5020006;28;20538;-71
2022/05/02 11:46:26;;;;;;;5.40;2.25;;;18.40;93.50;;;;;;5010260;28;20038;-71
2022/05/02 11:49:20;;;;;;;3.92;2.38;;;18.60;93.70;;;;;;5004633;28;20037;-71
2022/05/02 11:51:51;;;;;;;5.50;2.35;;;18.50;92.80;;;;;;5003082;28;20092;-71
2022/05/02 11:54:36;;;;;;;5.20;2.25;;;19.20;93.80;;;;;;5012515;28;20025;-71
2022/05/02 11:57:14;;;;;;;7.93;2.75;;;19.30;92.70;;;;;;4994155;28;22233;-71
2022/05/02 12:00:07;;;;;;;14.40;2.72;;;19.30;93.20;;;;;;4985822;28;20045;-71
2022/05/02 12:02:56;;;;;;;13.97;3.30;;;19.10;92.20;;;;;;4990588;28;20550;-71
2022/05/02 12:05:32;;;;;;;4.47;2.40;;;19.60;93.40;;;;;;4998831;28;20141;-72
2022/05/02 12:08:06;;;;;;;6.95;2.25;;;19.90;92.60;;;;;;4983100;28;20034;-71
2022/05/02 12:10:48;;;;;;;4.90;2.20;;;20.20;92.70;;;;;;4988856;28;20116;-71
2022/05/02 12:13:20;;;;;;;3.80;1.85;;;20.20;91.10;;;;;;4984668;28;20022;-71
2022/05/02 12:16:09;;;;;;;8.98;2.15;;;20.30;91.30;;;;;;4990129;28;20026;-71
2022/05/02 12:18:53;;;;;;;23.83;3.58;;;20.40;90.70;;;;;;5002927;28;20105;-71
2022/05/02 12:21:39;;;;;;;10.13;2.55;;;20.70;88.10;;;;;;5002402;28;20038;-71
2022/05/02 12:24:06;;;;;;;11.48;3.42;;;21.00;88.80;;;;;;5003991;28;20512;-71
2022/05/02 12:26:45;;;;;;;3.05;1.30;;;20.90;88.90;;;;;;5002574;28;20132;-71
2022/05/02 12:29:17;;;;;;;2.42;1.38;;;20.60;85.20;;;;;;4995497;28;20187;-71
2022/05/02 12:31:43;;;;;;;3.58;1.50;;;20.20;86.60;;;;;;5003102;28;20467;-71
2022/05/02 12:34:11;;;;;;;3.22;1.80;;;19.80;86.20;;;;;;5004145;28;20030;-71
2022/05/02 12:36:47;;;;;;;2.80;1.52;;;19.80;88.40;;;;;;4999747;28;20064;-71
2022/05/02 12:39:26;;;;;;;3.03;1.40;;;19.60;86.40;;;;;;5004040;28;20037;-71
2022/05/02 12:42:15;;;;;;;4.70;1.70;;;19.30;87.10;;;;;;5003565;28;20026;-71
2022/05/02 12:44:57;;;;;;;3.92;1.90;;;19.30;89.40;;;;;;4985812;28;20477;-71
2022/05/02 12:47:25;;;;;;;2.90;1.70;;;19.00;89.50;;;;;;4985112;28;20048;-72
2022/05/02 12:50:08;;;;;;;4.20;1.88;;;19.00;88.10;;;;;;4978959;28;20022;-71
2022/05/02 12:52:41;;;;;;;3.83;1.80;;;19.20;90.50;;;;;;5003450;28;20062;-71
2022/05/02 12:55:09;;;;;;;2.53;1.35;;;19.90;90.70;;;;;;5001209;28;20107;-71
2022/05/02 13:00:32;;;;;;;3.28;1.40;;;18.90;87.20;;;;;;4992346;28;20044;-70
2022/05/02 13:03:15;;;;;;;3.58;1.60;;;18.90;88.70;;;;;;5005904;28;20057;-71
2022/05/02 13:05:45;;;;;;;3.33;1.67;;;19.00;86.70;;;;;;5006068;28;20046;-71
2022/05/02 13:08:13;;;;;;;2.53;1.50;;;18.90;88.10;;;;;;4998005;28;20088;-72
2022/05/02 13:10:42;;;;;;;1.88;1.13;;;18.80;86.00;;;;;;5003569;28;20536;-71
2022/05/02 13:13:10;;;;;;;3.40;1.70;;;18.50;86.20;;;;;;5003835;28;20037;-71
2022/05/02 13:15:47;;;;;;;3.30;1.50;;;18.70;87.20;;;;;;5009506;28;20086;-71
2022/05/02 13:18:17;;;;;;;3.28;2.00;;;18.90;87.40;;;;;;5025527;28;20162;-71
2022/05/02 13:20:55;;;;;;;4.38;1.77;;;19.00;87.60;;;;;;5015426;28;20492;-71
2022/05/02 13:23:22;;;;;;;2.97;1.70;;;19.00;87.10;;;;;;5009483;28;20034;-72
2022/05/02 13:26:19;;;;;;;3.47;1.75;;;19.10;87.30;;;;;;5015044;28;20136;-71
2022/05/02 13:28:57;;;;;;;3.65;1.90;;;19.10;87.40;;;;;;5002130;28;20030;-72
2022/05/02 13:31:44;;;;;;;3.40;1.60;;;19.10;87.60;;;;;;5004762;28;20121;-71
2022/05/02 13:34:34;;;;;;;3.13;1.70;;;19.20;87.60;;;;;;5006096;28;20041;-71
2022/05/02 13:37:15;;;;;;;4.50;2.13;;;19.70;90.20;;;;;;5004222;28;20044;-72
2022/05/02 13:39:55;;;;;;;2.92;1.55;;;20.10;86.90;;;;;;5024137;28;20071;-71
2022/05/02 13:43:00;;;;;;;3.42;1.90;;;19.80;85.90;;;;;;4998943;28;20043;-71
2022/05/02 13:45:45;;;;;;;2.95;1.65;;;20.10;86.90;;;;;;5005039;28;20565;-71
2022/05/02 13:48:14;;;;;;;3.55;1.40;;;20.00;85.40;;;;;;5002108;28;20034;-72
2022/05/02 13:50:53;;;;;;;2.83;1.60;;;20.70;87.70;;;;;;5004962;28;20037;-71